Gesamt
Glen Innes Airport (Glen Innes, New South Wales) GLI Wetter
|
Glen Innes, New South Wales (YGLI)
Klarer Himmel
Windstill |
|
5 °C |
GLI Terminal Area Forecast
| Date | Time (AEST) | Flight Rules | Wind Dir. | Speed | Type | Height AGL (ft) | Visibility | Remarks | ||||||
|---|---|---|---|---|---|---|---|---|---|---|---|---|---|---|
Kürzlicher METAR-Verlauf für GLI
| Date | Time (AEST) | Flight Rules | Wind Dir. | Speed | Type | Height AGL (ft) | Visibility | Temp (°C) | Temp (°F) | Dew Point (°C) | Dew Point (°F) | Rel. Humid. | Pressure | Density Altitude | Remarks |
|---|---|---|---|---|---|---|---|---|---|---|---|---|---|---|---|
| 08-Mai | 20:00 | VFR | 260° | 2 kt | 10000 meters | 5° | 41° | -1° | 30° | 65% | 1022 mb | 2.686 ft | |||
| 08-Mai | 19:00 | VFR | 250° | 5 kt | 10000 meters | 6° | 42° | -2° | 28° | 56% | 1022 mb | 2.806 ft | |||
| 08-Mai | 18:00 | VFR | 240° | 3 kt | 10000 meters | 10° | 50° | -2° | 28° | 43% | 1021 mb | 3.316 ft | |||
| 08-Mai | 17:00 | VFR | 250° | 10 kt | 10000 meters | 13° | 55° | -1° | 30° | 38% | 1020 mb | 3.705 ft | |||
| 08-Mai | 16:00 | VFR | 250° | 13 kt | 10000 meters | 15° | 59° | -2° | 28° | 31% | 1020 mb | 3.945 ft | |||
| 08-Mai | 15:00 | VFR | 250° | 14 kt | 10000 meters | 16° | 60° | 0° | 32° | 34% | 1019 mb | 4.095 ft | |||
| 08-Mai | 14:00 | VFR | 260° | 13 kt | 10000 meters | 16° | 60° | 0° | 32° | 34% | 1019 mb | 4.095 ft | |||
| 08-Mai | 13:00 | VFR | 260° | 12 kt | 10000 meters | 16° | 60° | 1° | 33° | 36% | 1020 mb | 4.065 ft | |||
| 08-Mai | 12:00 | VFR | 260° | 13 kt | 10000 meters | 15° | 59° | 0° | 32° | 36% | 1020 mb | 3.945 ft | |||
| 08-Mai | 11:00 | VFR | 270° | 11 kt | 10000 meters | 13° | 55° | -1° | 30° | 38% | 1021 mb | 3.676 ft | |||
| 08-Mai | 10:00 | VFR | 240° | 9 kt | 10000 meters | 13° | 55° | 0° | 32° | 41% | 1021 mb | 3.676 ft | |||
| 08-Mai | 09:00 | VFR | 250° | 2 kt | 10000 meters | 8° | 46° | -2° | 28° | 49% | 1021 mb | 3.076 ft | |||
| 08-Mai | 08:00 | VFR | 270° | 3 kt | 10000 meters | 3° | 37° | -2° | 28° | 70% | 1021 mb | 2.476 ft | |||
| 08-Mai | 07:00 | VFR | 310° | 3 kt | 10000 meters | -1° | 30° | -3° | 26° | 86% | 1021 mb | 1.996 ft | |||
| 08-Mai | 06:00 | VFR | Calm | 10000 meters | -2° | 28° | -5° | 23° | 80% | 1020 mb | 1.905 ft | ||||
| 08-Mai | 05:00 | VFR | 250° | 3 kt | 10000 meters | -1° | 30° | -5° | 23° | 74% | 1020 mb | 2.025 ft | |||
| 08-Mai | 04:00 | VFR | 230° | 4 kt | 10000 meters | -3° | 26° | -7° | 19° | 74% | 1020 mb | 1.785 ft | |||
| 08-Mai | 03:00 | VFR | 290° | 2 kt | 10000 meters | -1° | 30° | -5° | 23° | 74% | 1020 mb | 2.025 ft | |||
| 08-Mai | 02:00 | VFR | 270° | 4 kt | 10000 meters | -1° | 30° | -6° | 21° | 69% | 1020 mb | 2.025 ft | |||
| 08-Mai | 01:00 | VFR | 220° | 6 kt | 10000 meters | 1° | 33° | -5° | 23° | 64% | 1020 mb | 2.265 ft | |||
| 08-Mai | 00:00 | VFR | 220° | 3 kt | 10000 meters | 2° | 35° | -6° | 21° | 55% | 1020 mb | 2.385 ft | |||
| 07-Mai | 23:00 | VFR | 200° | 6 kt | 10000 meters | 2° | 35° | -6° | 21° | 55% | 1020 mb | 2.385 ft | |||
| 07-Mai | 22:00 | VFR | 210° | 7 kt | 10000 meters | 4° | 39° | -6° | 21° | 48% | 1020 mb | 2.625 ft | |||
| 07-Mai | 21:00 | VFR | 240° | 12 kt | 10000 meters | 6° | 42° | -4° | 24° | 49% | 1020 mb | 2.865 ft |
Anmelden
| Ihr Browser wird nicht unterstützt. aktualisieren Sie Ihren Browser |
